Time;durP1;ratioP1;P1;durP2;ratioP2;P2;SDS_P1;SDS_P2;PMS_P1;PMS_P2;Temp;Humidity;BMP_temperature;BMP_pressure;BME280_temperature;BME280_humidity;BME280_pressure;Samples;Min_cycle;Max_cycle;Signal;HPM_P1;HPM_P2
2021/08/11 00:02:23;;;;;;;9.17;7.97;;;18.50;81.10;;;;;;5053751;28;20224;-91
2021/08/11 00:04:49;;;;;;;11.30;8.50;;;18.50;80.80;;;;;;5068394;28;20209;-91
2021/08/11 00:07:15;;;;;;;11.37;8.90;;;18.50;80.80;;;;;;5058030;28;20181;-91
2021/08/11 00:09:40;;;;;;;10.10;8.97;;;18.40;81.00;;;;;;5059337;28;20543;-91
2021/08/11 00:12:06;;;;;;;10.40;8.40;;;18.40;80.90;;;;;;5057300;28;20219;-91
2021/08/11 00:14:32;;;;;;;11.50;7.43;;;18.50;80.60;;;;;;5055513;28;20667;-91
2021/08/11 00:16:58;;;;;;;10.60;8.83;;;18.40;80.60;;;;;;5056929;28;20454;-91
2021/08/11 00:19:23;;;;;;;10.30;8.53;;;18.40;80.50;;;;;;5059444;28;20181;-91
2021/08/11 00:21:50;;;;;;;11.50;8.47;;;18.60;80.20;;;;;;5057298;28;20173;-91
2021/08/11 00:24:15;;;;;;;10.45;8.38;;;18.50;79.80;;;;;;5056582;28;20207;-91
2021/08/11 00:26:41;;;;;;;14.30;8.97;;;18.50;79.60;;;;;;5054736;28;20185;-90
2021/08/11 00:29:07;;;;;;;11.23;7.90;;;18.50;79.50;;;;;;5058129;28;20173;-91
2021/08/11 00:31:33;;;;;;;11.60;7.87;;;18.20;79.80;;;;;;5056056;28;20181;-91
2021/08/11 00:33:59;;;;;;;12.57;7.33;;;18.20;80.40;;;;;;5056898;28;20548;-90
2021/08/11 00:36:24;;;;;;;11.13;9.52;;;18.20;80.80;;;;;;5055949;28;20253;-91
2021/08/11 00:38:50;;;;;;;11.10;8.43;;;18.10;81.00;;;;;;5064498;28;20208;-91
2021/08/11 00:41:16;;;;;;;11.20;9.10;;;18.10;81.20;;;;;;5052788;28;20647;-91
2021/08/11 00:43:42;;;;;;;13.60;8.43;;;17.90;81.50;;;;;;5052596;28;20197;-91
2021/08/11 00:46:11;;;;;;;17.20;9.32;;;17.80;81.80;;;;;;5052477;28;20468;-91
2021/08/11 00:48:38;;;;;;;11.40;8.68;;;17.80;82.30;;;;;;5053007;28;20238;-91
2021/08/11 00:51:05;;;;;;;11.85;9.10;;;17.70;82.50;;;;;;5052443;28;20177;-91
2021/08/11 00:53:32;;;;;;;10.25;7.95;;;17.70;82.70;;;;;;5052248;28;20207;-91
2021/08/11 00:55:59;;;;;;;12.80;9.80;;;17.70;82.70;;;;;;5052468;28;20264;-91
2021/08/11 00:58:27;;;;;;;14.82;9.70;;;17.70;82.60;;;;;;5052138;28;20211;-91
2021/08/11 01:00:54;;;;;;;12.75;9.50;;;17.70;82.50;;;;;;5062507;28;20227;-91
2021/08/11 01:03:22;;;;;;;11.93;9.45;;;17.70;82.40;;;;;;5054959;28;20201;-91
2021/08/11 01:05:53;;;;;;;16.75;10.10;;;17.80;82.20;;;;;;5056086;28;20181;-91
2021/08/11 01:08:22;;;;;;;11.07;9.02;;;17.90;81.70;;;;;;5056614;28;20212;-90
2021/08/11 01:10:49;;;;;;;14.00;10.25;;;17.90;81.30;;;;;;5056641;28;20174;-91
2021/08/11 01:13:16;;;;;;;13.07;10.15;;;18.10;80.80;;;;;;5058536;28;20228;-91
2021/08/11 01:15:46;;;;;;;15.55;11.27;;;18.20;80.20;;;;;;5056720;28;20181;-91
2021/08/11 01:18:16;;;;;;;18.58;12.73;;;18.10;79.80;;;;;;5057305;28;20196;-91
2021/08/11 01:21:18;;;;;;;17.02;11.00;;;18.20;79.40;;;;;;5059257;28;20215;-91
2021/08/11 01:24:18;;;;;;;15.07;10.13;;;18.20;79.10;;;;;;5035269;28;20212;-91
2021/08/11 01:27:22;;;;;;;19.77;12.43;;;18.10;78.90;;;;;;5076535;28;20196;-91
2021/08/11 01:30:00;;;;;;;14.50;11.80;;;18.20;78.40;;;;;;5078559;28;20161;-91
2021/08/11 01:32:47;;;;;;;19.55;12.15;;;18.00;78.20;;;;;;5069310;28;20196;-91
2021/08/11 01:35:17;;;;;;;17.70;13.13;;;18.00;78.30;;;;;;5070413;28;20233;-91
2021/08/11 01:37:44;;;;;;;21.90;13.52;;;18.00;78.50;;;;;;5073949;28;20289;-91
2021/08/11 01:40:16;;;;;;;21.95;14.88;;;17.90;78.70;;;;;;5069022;28;20676;-91
2021/08/11 01:42:44;;;;;;;25.50;14.63;;;17.90;78.90;;;;;;5065165;28;20550;-91
2021/08/11 01:45:13;;;;;;;20.13;11.88;;;17.80;79.30;;;;;;5078048;28;20207;-89
2021/08/11 01:47:50;;;;;;;24.40;14.70;;;17.70;79.50;;;;;;5078745;28;20157;-90
2021/08/11 01:50:19;;;;;;;19.23;13.60;;;17.70;80.00;;;;;;5079467;28;20191;-91
2021/08/11 01:52:46;;;;;;;17.58;12.93;;;17.80;79.80;;;;;;5077769;28;20215;-90
2021/08/11 01:55:13;;;;;;;17.55;13.05;;;17.80;79.60;;;;;;5078258;28;20168;-91
2021/08/11 01:57:48;;;;;;;20.50;13.48;;;17.80;79.60;;;;;;5072756;28;20188;-90
2021/08/11 02:00:17;;;;;;;20.38;13.20;;;17.80;79.60;;;;;;5055664;28;20295;-90
2021/08/11 02:02:45;;;;;;;22.02;14.18;;;17.80;79.50;;;;;;5055617;28;20272;-91
2021/08/11 02:05:12;;;;;;;21.73;14.48;;;17.80;79.30;;;;;;5055134;28;20219;-91
2021/08/11 02:07:40;;;;;;;19.50;11.93;;;17.80;79.10;;;;;;5056235;28;20307;-91
2021/08/11 02:10:08;;;;;;;21.15;13.13;;;17.70;79.10;;;;;;5039996;28;20186;-91
2021/08/11 02:12:33;;;;;;;23.63;12.45;;;17.60;79.60;;;;;;5055200;28;20235;-91
2021/08/11 02:15:00;;;;;;;24.97;14.10;;;17.50;80.10;;;;;;5055255;28;20213;-91
2021/08/11 02:17:25;;;;;;;21.17;13.88;;;17.40;80.30;;;;;;5054786;28;20196;-91
2021/08/11 02:19:53;;;;;;;18.93;13.83;;;17.30;80.60;;;;;;5055842;28;20197;-90
2021/08/11 02:22:19;;;;;;;20.38;15.02;;;17.30;80.70;;;;;;5055792;28;20279;-90
2021/08/11 02:24:45;;;;;;;20.15;14.30;;;17.30;80.90;;;;;;5054902;28;20213;-90
2021/08/11 02:27:23;;;;;;;22.02;14.23;;;17.60;80.60;;;;;;5057633;28;20173;-91
2021/08/11 02:29:55;;;;;;;21.02;11.70;;;17.50;80.20;;;;;;5055029;28;20215;-91
2021/08/11 02:32:41;;;;;;;23.80;13.93;;;17.60;79.90;;;;;;5054382;28;20203;-91
2021/08/11 02:35:37;;;;;;;23.10;14.82;;;17.60;79.40;;;;;;5054546;28;20177;-91
2021/08/11 02:38:33;;;;;;;23.25;16.17;;;17.50;79.40;;;;;;5054155;28;20189;-91
2021/08/11 02:41:38;;;;;;;25.20;15.38;;;17.40;79.70;;;;;;5054449;28;20250;-91
2021/08/11 02:44:10;;;;;;;22.55;14.57;;;17.30;80.10;;;;;;5041333;28;20215;-91
2021/08/11 02:46:40;;;;;;;19.27;13.00;;;17.30;80.60;;;;;;5054791;28;20222;-91
2021/08/11 02:49:09;;;;;;;19.85;14.48;;;17.50;80.50;;;;;;5053716;28;20173;-91
2021/08/11 02:51:36;;;;;;;24.88;15.13;;;17.50;79.90;;;;;;5066872;28;20193;-91
2021/08/11 02:54:07;;;;;;;16.30;12.80;;;17.50;79.50;;;;;;5054031;28;20247;-91
2021/08/11 02:56:33;;;;;;;16.15;12.23;;;17.50;79.30;;;;;;5053971;28;20172;-91
2021/08/11 02:59:00;;;;;;;15.25;12.00;;;17.50;79.30;;;;;;5054009;28;20658;-91
2021/08/11 03:01:30;;;;;;;16.55;10.90;;;17.50;79.10;;;;;;5053759;28;20197;-91
2021/08/11 03:03:59;;;;;;;12.57;8.57;;;17.60;78.70;;;;;;5053730;28;20259;-91
2021/08/11 03:06:26;;;;;;;12.48;8.77;;;17.50;78.40;;;;;;5053796;28;20204;-91
2021/08/11 03:08:52;;;;;;;11.30;9.15;;;17.50;78.30;;;;;;5053659;28;20277;-91
2021/08/11 03:11:19;;;;;;;12.93;9.15;;;17.40;78.80;;;;;;5053023;28;20205;-92
2021/08/11 03:13:46;;;;;;;10.77;8.30;;;17.40;78.70;;;;;;5053317;28;20208;-91
2021/08/11 03:16:13;;;;;;;11.18;7.40;;;17.40;78.60;;;;;;5054507;28;20204;-91
2021/08/11 03:18:40;;;;;;;14.85;8.20;;;17.40;78.40;;;;;;5054354;28;20188;-91
2021/08/11 03:21:06;;;;;;;16.00;8.90;;;17.40;78.20;;;;;;5053342;28;20350;-91
2021/08/11 03:23:32;;;;;;;12.13;8.70;;;17.40;78.00;;;;;;5052920;28;20284;-91
2021/08/11 03:25:57;;;;;;;11.88;8.60;;;17.50;78.80;;;;;;5053335;28;20826;-91
2021/08/11 03:28:23;;;;;;;12.80;9.30;;;17.60;77.50;;;;;;5053214;28;20176;-91
2021/08/11 03:30:49;;;;;;;10.80;8.93;;;17.50;77.50;;;;;;5053242;28;20662;-91
2021/08/11 03:33:15;;;;;;;11.88;9.50;;;17.40;77.60;;;;;;5052573;28;20717;-91
2021/08/11 03:35:41;;;;;;;11.27;9.00;;;17.30;77.90;;;;;;5052832;28;20193;-91
2021/08/11 03:38:07;;;;;;;13.18;10.10;;;17.20;78.10;;;;;;5053122;28;20419;-91
2021/08/11 03:40:33;;;;;;;16.30;10.47;;;17.20;78.30;;;;;;5053100;28;20216;-91
2021/08/11 03:42:59;;;;;;;13.83;9.73;;;17.20;78.40;;;;;;5053253;28;20470;-91
2021/08/11 03:45:25;;;;;;;13.07;9.70;;;17.20;78.30;;;;;;5062734;28;20215;-92
2021/08/11 03:47:50;;;;;;;14.13;10.63;;;17.10;78.50;;;;;;5060886;28;20204;-91
2021/08/11 03:50:19;;;;;;;14.40;10.90;;;17.20;79.00;;;;;;5053115;28;20667;-91
2021/08/11 03:52:46;;;;;;;21.67;14.30;;;17.20;78.80;;;;;;5052867;28;20481;-91
2021/08/11 03:55:13;;;;;;;22.45;15.52;;;17.30;78.70;;;;;;5056450;28;20192;-91
2021/08/11 03:57:40;;;;;;;17.52;13.98;;;17.30;78.30;;;;;;5053206;28;20264;-91
2021/08/11 04:00:07;;;;;;;21.63;14.50;;;17.30;78.30;;;;;;5053247;28;20235;-91
2021/08/11 04:02:33;;;;;;;18.67;15.25;;;17.10;78.40;;;;;;5052916;28;20672;-91
2021/08/11 04:04:59;;;;;;;22.70;14.90;;;17.10;78.60;;;;;;5052913;28;20230;-91
2021/08/11 04:07:24;;;;;;;22.10;16.33;;;17.10;78.70;;;;;;5052876;28;20254;-91
2021/08/11 04:09:50;;;;;;;24.10;18.30;;;17.10;78.90;;;;;;5057120;28;20229;-91
2021/08/11 04:12:16;;;;;;;24.63;16.93;;;17.10;78.80;;;;;;5052100;28;20284;-91
2021/08/11 04:14:41;;;;;;;26.67;16.47;;;17.10;78.70;;;;;;5052942;28;20192;-91
2021/08/11 04:17:08;;;;;;;28.47;17.90;;;17.00;79.00;;;;;;5053302;28;20188;-91
2021/08/11 04:19:34;;;;;;;26.40;18.08;;;16.90;79.70;;;;;;5053055;28;20208;-91
2021/08/11 04:22:00;;;;;;;27.75;17.90;;;16.90;80.00;;;;;;5052256;28;20213;-92
2021/08/11 04:24:26;;;;;;;30.43;17.83;;;16.90;80.40;;;;;;5052914;28;20173;-91
2021/08/11 04:26:52;;;;;;;28.38;17.45;;;16.90;80.60;;;;;;5052629;28;20187;-91
2021/08/11 04:29:18;;;;;;;29.77;17.13;;;17.00;80.70;;;;;;5052629;28;20173;-91
2021/08/11 04:31:44;;;;;;;26.17;16.30;;;16.90;80.70;;;;;;5052145;28;20185;-91
2021/08/11 04:34:09;;;;;;;30.63;17.13;;;16.90;80.90;;;;;;5052224;28;20181;-91
2021/08/11 04:36:35;;;;;;;32.53;17.37;;;16.80;81.10;;;;;;5053016;28;20177;-91
2021/08/11 04:39:01;;;;;;;24.03;16.17;;;16.80;81.40;;;;;;5056704;28;20247;-91
2021/08/11 04:41:27;;;;;;;23.10;15.70;;;16.80;81.70;;;;;;5067336;28;20201;-91
2021/08/11 04:43:52;;;;;;;25.27;16.00;;;16.70;82.00;;;;;;5059032;28;20208;-91
2021/08/11 04:46:18;;;;;;;23.90;14.73;;;16.80;82.10;;;;;;5055967;28;20268;-92
2021/08/11 04:48:44;;;;;;;23.40;14.30;;;16.80;82.30;;;;;;5057036;28;20234;-91
2021/08/11 04:51:09;;;;;;;20.80;13.23;;;16.90;82.20;;;;;;5056115;28;20261;-93
2021/08/11 04:53:35;;;;;;;23.80;14.20;;;17.10;82.00;;;;;;5055929;28;20205;-91
2021/08/11 04:56:01;;;;;;;22.83;14.50;;;17.20;81.40;;;;;;5057033;28;20195;-91
2021/08/11 04:58:27;;;;;;;29.23;13.83;;;17.20;80.90;;;;;;5056607;28;20701;-91
2021/08/11 05:00:52;;;;;;;22.87;14.23;;;17.30;80.80;;;;;;5057582;28;20205;-91
2021/08/11 05:03:18;;;;;;;20.90;13.83;;;17.20;80.60;;;;;;5073075;28;20247;-92
2021/08/11 05:05:44;;;;;;;16.85;12.98;;;17.20;80.60;;;;;;5079659;28;20189;-92
2021/08/11 05:08:10;;;;;;;20.37;12.10;;;17.40;80.30;;;;;;5079216;28;20200;-91
2021/08/11 05:10:36;;;;;;;18.73;12.13;;;17.40;79.70;;;;;;5059013;28;20419;-91
2021/08/11 05:13:01;;;;;;;19.67;12.03;;;17.40;79.30;;;;;;5059181;28;20201;-91
2021/08/11 05:15:27;;;;;;;22.53;13.20;;;17.40;79.20;;;;;;5055848;28;20180;-91
2021/08/11 05:17:53;;;;;;;24.60;13.10;;;17.50;79.00;;;;;;5056674;28;20177;-91
2021/08/11 05:20:19;;;;;;;19.93;12.10;;;17.50;78.80;;;;;;5056065;28;20201;-91
2021/08/11 05:22:49;;;;;;;17.15;11.38;;;17.50;78.70;;;;;;5056077;28;20212;-91
2021/08/11 05:25:15;;;;;;;20.13;13.18;;;17.60;78.60;;;;;;5056544;28;20564;-91
2021/08/11 05:27:42;;;;;;;22.23;12.18;;;17.60;78.30;;;;;;5057070;28;20180;-91
2021/08/11 05:30:09;;;;;;;19.90;12.70;;;17.60;78.30;;;;;;5058235;28;20213;-91
2021/08/11 05:32:35;;;;;;;18.92;12.18;;;17.70;78.30;;;;;;5070329;28;20197;-91
2021/08/11 05:35:02;;;;;;;17.17;10.63;;;17.80;78.10;;;;;;5070091;28;20643;-91
2021/08/11 05:37:27;;;;;;;14.20;10.15;;;18.10;77.10;;;;;;5077403;28;20204;-92
2021/08/11 05:39:53;;;;;;;18.60;10.93;;;18.20;76.40;;;;;;5072808;28;20205;-91
2021/08/11 05:42:19;;;;;;;16.87;9.77;;;18.70;76.20;;;;;;5057083;28;20199;-92
2021/08/11 05:44:45;;;;;;;15.50;9.10;;;19.30;75.30;;;;;;5079060;28;20224;-91
2021/08/11 05:47:11;;;;;;;15.63;10.57;;;20.30;73.10;;;;;;5079170;28;20424;-91
2021/08/11 05:49:37;;;;;;;17.70;8.50;;;21.20;69.40;;;;;;5078562;28;20154;-92
2021/08/11 05:52:06;;;;;;;13.43;9.83;;;21.90;65.70;;;;;;5069445;28;20903;-91
2021/08/11 05:54:38;;;;;;;10.57;8.00;;;23.20;62.90;;;;;;5055258;28;20192;-91
2021/08/11 05:57:05;;;;;;;9.57;7.37;;;24.10;58.90;;;;;;5058476;28;20922;-92
2021/08/11 05:59:32;;;;;;;12.20;7.57;;;24.40;56.10;;;;;;5057069;28;20423;-91
2021/08/11 06:01:59;;;;;;;12.53;9.17;;;24.50;54.90;;;;;;5055024;28;20283;-92
2021/08/11 06:04:26;;;;;;;10.90;8.73;;;24.40;54.20;;;;;;5056071;28;20469;-92
2021/08/11 06:06:52;;;;;;;12.20;8.47;;;24.20;54.40;;;;;;5056044;28;20422;-92
2021/08/11 06:09:17;;;;;;;13.97;7.77;;;23.70;55.10;;;;;;5055722;28;20502;-92
2021/08/11 06:11:43;;;;;;;10.83;8.20;;;23.60;55.70;;;;;;5055466;28;20840;-91
2021/08/11 06:14:09;;;;;;;13.07;8.10;;;23.60;56.00;;;;;;5056046;28;20181;-91
2021/08/11 06:16:36;;;;;;;12.90;8.50;;;23.60;56.30;;;;;;5055637;28;20204;-92
2021/08/11 06:19:02;;;;;;;11.67;8.90;;;23.50;56.40;;;;;;5054735;28;20188;-92
2021/08/11 06:21:28;;;;;;;14.00;8.27;;;23.50;56.40;;;;;;5054864;28;20463;-91
2021/08/11 06:23:54;;;;;;;14.10;8.27;;;23.40;56.50;;;;;;5055320;28;20976;-92
2021/08/11 06:26:21;;;;;;;15.03;7.47;;;23.30;57.00;;;;;;5054981;28;20419;-91
2021/08/11 06:28:46;;;;;;;13.40;8.47;;;23.70;56.20;;;;;;5055178;28;20416;-92
2021/08/11 06:31:17;;;;;;;16.10;8.00;;;23.50;55.70;;;;;;5055424;28;20430;-92
2021/08/11 06:33:44;;;;;;;10.57;7.20;;;23.40;56.20;;;;;;5069777;28;20201;-92
2021/08/11 06:36:10;;;;;;;13.00;8.50;;;23.10;56.60;;;;;;5054999;28;20427;-91
2021/08/11 06:38:36;;;;;;;9.23;6.97;;;23.00;56.90;;;;;;5055620;28;20474;-92
2021/08/11 06:41:02;;;;;;;11.50;7.77;;;22.90;57.40;;;;;;5055244;28;20459;-91
2021/08/11 06:43:28;;;;;;;8.80;6.87;;;22.70;57.80;;;;;;5054033;28;20224;-91
2021/08/11 06:45:54;;;;;;;10.10;6.50;;;22.70;58.30;;;;;;5054684;28;21102;-92
2021/08/11 06:48:19;;;;;;;10.97;6.90;;;23.00;57.60;;;;;;5054596;28;20181;-91
2021/08/11 06:50:45;;;;;;;10.40;7.50;;;23.20;57.10;;;;;;5055757;28;20177;-91
2021/08/11 06:53:11;;;;;;;12.30;6.93;;;23.10;57.10;;;;;;5054261;28;20208;-92
2021/08/11 06:55:37;;;;;;;8.93;6.70;;;23.20;57.20;;;;;;5054754;28;20178;-91
2021/08/11 06:58:03;;;;;;;8.80;6.30;;;23.30;56.20;;;;;;5054745;28;20227;-91
2021/08/11 07:00:28;;;;;;;9.87;6.17;;;23.30;55.60;;;;;;5053494;28;20616;-92
2021/08/11 07:02:54;;;;;;;10.67;6.30;;;23.30;55.90;;;;;;5054336;28;20198;-91
2021/08/11 07:05:20;;;;;;;11.47;6.60;;;22.90;56.70;;;;;;5055287;28;20272;-92
2021/08/11 07:07:46;;;;;;;13.07;6.47;;;22.80;57.30;;;;;;5054242;28;20179;-92
2021/08/11 07:10:14;;;;;;;13.13;6.93;;;22.70;57.60;;;;;;5054173;28;20181;-92
2021/08/11 07:12:40;;;;;;;9.10;6.60;;;22.80;57.60;;;;;;5053947;28;20436;-92
2021/08/11 07:15:08;;;;;;;14.20;6.47;;;23.10;57.00;;;;;;5054356;28;20424;-92
2021/08/11 07:17:33;;;;;;;5.87;4.70;;;23.00;56.90;;;;;;5055108;28;21049;-92
2021/08/11 07:19:59;;;;;;;11.23;6.40;;;22.80;57.20;;;;;;5055042;28;20510;-92
2021/08/11 07:22:25;;;;;;;8.73;6.17;;;22.60;57.90;;;;;;5053654;28;20240;-92
2021/08/11 07:24:51;;;;;;;12.53;6.03;;;22.60;58.50;;;;;;5054527;28;20173;-92
2021/08/11 07:27:17;;;;;;;16.37;5.67;;;22.60;58.60;;;;;;5057889;28;20203;-92
2021/08/11 07:29:43;;;;;;;8.10;5.10;;;22.10;57.90;;;;;;5065129;28;20891;-91
2021/08/11 07:32:09;;;;;;;7.10;5.40;;;22.00;58.70;;;;;;5053231;28;20435;-92
2021/08/11 07:34:35;;;;;;;7.70;5.07;;;21.80;59.50;;;;;;5055278;28;20191;-91
2021/08/11 07:37:00;;;;;;;7.63;5.00;;;21.60;60.40;;;;;;5054173;28;20212;-91
2021/08/11 07:39:26;;;;;;;9.23;4.63;;;21.50;61.20;;;;;;5053972;28;20259;-92
2021/08/11 07:41:52;;;;;;;8.77;4.47;;;21.40;61.60;;;;;;5052676;28;20211;-91
2021/08/11 07:44:18;;;;;;;8.60;4.63;;;21.40;61.20;;;;;;5054431;28;20581;-91
2021/08/11 07:46:44;;;;;;;7.40;5.77;;;21.20;60.60;;;;;;5053344;28;20420;-91
2021/08/11 07:49:10;;;;;;;13.88;5.03;;;21.20;61.10;;;;;;5054110;28;20181;-91
2021/08/11 07:51:36;;;;;;;7.23;4.60;;;21.10;61.70;;;;;;5053622;28;20181;-92
2021/08/11 07:54:04;;;;;;;9.70;4.73;;;21.10;62.50;;;;;;5053223;28;20173;-91
2021/08/11 07:56:30;;;;;;;4.75;4.25;;;21.00;62.50;;;;;;5052746;28;20181;-92
2021/08/11 07:58:56;;;;;;;4.27;3.87;;;21.00;61.80;;;;;;5052948;28;20184;-91
2021/08/11 08:01:23;;;;;;;6.30;4.00;;;21.10;61.90;;;;;;5052533;28;20205;-91
2021/08/11 08:03:49;;;;;;;6.63;4.25;;;21.30;61.80;;;;;;5053489;28;20197;-91
2021/08/11 08:06:14;;;;;;;8.70;3.83;;;21.50;61.40;;;;;;5052907;28;20697;-92
2021/08/11 08:08:40;;;;;;;10.13;5.80;;;21.40;58.50;;;;;;5053280;28;20185;-91
2021/08/11 08:11:06;;;;;;;7.87;4.20;;;21.40;59.10;;;;;;5053394;28;20504;-91
2021/08/11 08:13:32;;;;;;;11.87;4.10;;;21.40;58.90;;;;;;5057365;28;20205;-91
2021/08/11 08:15:57;;;;;;;10.50;3.30;;;21.60;59.00;;;;;;5057430;28;20189;-91
2021/08/11 08:18:23;;;;;;;4.77;3.20;;;21.50;58.90;;;;;;5057794;28;20188;-92
2021/08/11 08:20:54;;;;;;;10.67;3.97;;;21.40;58.40;;;;;;5057386;28;20201;-91
2021/08/11 08:23:21;;;;;;;5.30;3.65;;;21.50;58.60;;;;;;5056403;28;20438;-91
2021/08/11 08:25:48;;;;;;;6.55;3.20;;;21.70;58.60;;;;;;5072653;28;20284;-92
2021/08/11 08:28:14;;;;;;;5.20;3.20;;;21.60;57.00;;;;;;5057690;28;20176;-92
2021/08/11 08:30:41;;;;;;;7.00;3.10;;;21.70;57.50;;;;;;5057243;28;20180;-91
2021/08/11 08:33:07;;;;;;;3.37;3.07;;;21.80;57.00;;;;;;5057058;28;20189;-91
2021/08/11 08:35:34;;;;;;;9.70;3.47;;;21.50;56.40;;;;;;5056656;28;20514;-91
2021/08/11 08:38:00;;;;;;;4.20;3.17;;;21.80;57.20;;;;;;5058175;28;20173;-91
2021/08/11 08:40:31;;;;;;;3.13;2.80;;;21.60;55.70;;;;;;5056811;28;20201;-91
2021/08/11 08:42:57;;;;;;;7.03;3.53;;;21.80;55.80;;;;;;5056865;28;20435;-91
2021/08/11 08:45:22;;;;;;;6.60;3.13;;;21.80;56.10;;;;;;5058280;28;20231;-91
2021/08/11 08:47:49;;;;;;;4.23;3.33;;;21.60;56.50;;;;;;5057124;28;20683;-91
2021/08/11 08:50:19;;;;;;;5.82;2.72;;;21.80;56.20;;;;;;5057105;28;20771;-91
2021/08/11 08:52:45;;;;;;;5.90;3.50;;;22.00;56.40;;;;;;5056173;28;20770;-89
2021/08/11 08:55:12;;;;;;;7.13;3.03;;;22.20;56.70;;;;;;5056709;28;20423;-89
2021/08/11 08:57:37;;;;;;;7.37;3.57;;;22.40;56.30;;;;;;5056760;28;20416;-89
2021/08/11 09:00:08;;;;;;;7.00;3.27;;;22.60;56.10;;;;;;5057250;28;20868;-89
2021/08/11 09:02:38;;;;;;;5.60;3.20;;;22.80;55.20;;;;;;5056324;28;20711;-89
2021/08/11 09:05:06;;;;;;;5.30;2.70;;;22.90;55.20;;;;;;5056285;28;20423;-91
2021/08/11 09:07:32;;;;;;;9.77;2.80;;;23.00;54.30;;;;;;5056324;28;20455;-92
2021/08/11 09:09:57;;;;;;;7.17;3.10;;;23.10;54.20;;;;;;5056676;28;20420;-91
2021/08/11 09:12:23;;;;;;;3.50;3.20;;;23.10;53.60;;;;;;5055411;28;20203;-92
2021/08/11 09:14:52;;;;;;;5.93;2.83;;;23.20;53.60;;;;;;5056452;28;20544;-91
2021/08/11 09:17:38;;;;;;;4.03;3.07;;;23.30;52.80;;;;;;5056054;28;20489;-91
2021/08/11 09:20:09;;;;;;;4.07;3.23;;;23.20;51.60;;;;;;5069315;28;20435;-92
2021/08/11 09:22:49;;;;;;;7.30;3.20;;;22.60;51.70;;;;;;5051606;28;20485;-89
2021/08/11 09:25:16;;;;;;;4.43;2.43;;;22.40;53.20;;;;;;5055940;28;20855;-89
2021/08/11 09:27:45;;;;;;;8.37;3.23;;;22.30;52.70;;;;;;5056996;28;20934;-89
2021/08/11 09:30:16;;;;;;;5.17;3.10;;;22.60;52.40;;;;;;5056624;28;20416;-89
2021/08/11 09:33:04;;;;;;;3.70;2.90;;;22.50;52.30;;;;;;5055415;28;20556;-89
2021/08/11 09:35:37;;;;;;;4.00;2.53;;;22.70;52.70;;;;;;5055760;28;20534;-89
2021/08/11 09:38:06;;;;;;;11.83;3.20;;;22.80;51.60;;;;;;5055356;28;20411;-89
2021/08/11 09:40:34;;;;;;;4.40;3.30;;;23.00;51.80;;;;;;5055903;28;20868;-89
2021/08/11 09:43:12;;;;;;;7.43;3.60;;;23.30;51.80;;;;;;5055710;28;20428;-89
2021/08/11 09:45:45;;;;;;;4.73;3.70;;;23.60;51.80;;;;;;5055829;28;20412;-89
2021/08/11 09:48:11;;;;;;;3.20;2.90;;;23.70;50.30;;;;;;5056016;28;20529;-89
2021/08/11 09:50:59;;;;;;;6.10;3.67;;;23.40;50.30;;;;;;5055253;28;20412;-89
2021/08/11 09:53:27;;;;;;;4.90;2.50;;;23.20;50.70;;;;;;5055459;28;20627;-89
2021/08/11 09:56:08;;;;;;;3.70;2.80;;;23.30;51.40;;;;;;5056846;28;21077;-89
2021/08/11 09:58:40;;;;;;;3.20;2.60;;;23.30;51.30;;;;;;5058114;28;20755;-89
2021/08/11 10:01:13;;;;;;;6.43;2.87;;;23.30;51.80;;;;;;5057228;28;20463;-89
2021/08/11 10:04:06;;;;;;;3.30;2.93;;;23.30;51.30;;;;;;5058764;28;20427;-89
2021/08/11 10:06:37;;;;;;;5.37;2.90;;;23.30;51.40;;;;;;5057626;28;20412;-89
2021/08/11 10:09:24;;;;;;;7.93;4.00;;;23.30;51.60;;;;;;5057398;28;20431;-89
2021/08/11 10:11:55;;;;;;;5.80;3.07;;;23.40;51.70;;;;;;5057034;28;20412;-89
2021/08/11 10:14:23;;;;;;;5.87;3.07;;;23.40;51.60;;;;;;5061492;28;20424;-89
2021/08/11 10:16:50;;;;;;;6.33;3.60;;;23.30;51.90;;;;;;5069677;28;20459;-89
2021/08/11 10:19:16;;;;;;;5.70;3.40;;;23.10;51.70;;;;;;5056258;28;20424;-89
2021/08/11 10:21:57;;;;;;;3.30;3.00;;;23.10;52.10;;;;;;5056510;28;20562;-89
2021/08/11 10:24:23;;;;;;;3.57;2.80;;;22.90;52.00;;;;;;5058004;28;20982;-89
2021/08/11 10:26:52;;;;;;;3.03;2.73;;;22.80;52.30;;;;;;5059411;28;20440;-89
2021/08/11 10:29:18;;;;;;;6.43;3.30;;;22.80;52.50;;;;;;5064741;28;20396;-89
2021/08/11 10:31:45;;;;;;;5.47;2.73;;;22.80;52.00;;;;;;5037981;28;20899;-89
2021/08/11 10:34:13;;;;;;;7.13;3.63;;;23.00;52.30;;;;;;5056321;28;20420;-89
2021/08/11 10:36:44;;;;;;;8.03;3.83;;;22.90;52.20;;;;;;5055084;28;20474;-89
2021/08/11 10:39:10;;;;;;;3.00;2.77;;;23.10;52.50;;;;;;5055237;28;20411;-89
2021/08/11 10:41:38;;;;;;;3.57;2.80;;;23.10;52.60;;;;;;5055097;28;20502;-89
2021/08/11 10:44:05;;;;;;;3.43;3.13;;;23.20;51.90;;;;;;5055272;28;20923;-89
2021/08/11 10:46:44;;;;;;;4.50;3.57;;;23.30;51.60;;;;;;5054638;28;20415;-89
2021/08/11 10:49:16;;;;;;;3.80;2.83;;;23.30;51.60;;;;;;5055455;28;20407;-89
2021/08/11 10:51:45;;;;;;;3.30;2.80;;;23.20;52.00;;;;;;5055075;28;20858;-89
2021/08/11 10:54:11;;;;;;;5.63;3.67;;;23.40;52.00;;;;;;5066610;28;20406;-89
2021/08/11 10:56:49;;;;;;;13.17;3.43;;;23.40;52.20;;;;;;5074778;28;20416;-89
2021/08/11 10:59:25;;;;;;;3.37;2.90;;;23.40;52.10;;;;;;5072794;28;20415;-89
2021/08/11 11:01:58;;;;;;;4.53;3.43;;;23.30;52.00;;;;;;5055667;28;20454;-92
2021/08/11 11:04:49;;;;;;;5.67;3.90;;;23.40;52.10;;;;;;5054516;28;20894;-92
2021/08/11 11:07:16;;;;;;;4.53;3.77;;;23.80;50.80;;;;;;5053869;28;20473;-92
2021/08/11 11:09:47;;;;;;;3.43;3.13;;;24.00;50.60;;;;;;5054200;28;20423;-90
2021/08/11 11:12:16;;;;;;;3.90;3.23;;;24.30;50.40;;;;;;5067332;28;20482;-90
2021/08/11 11:15:00;;;;;;;5.50;3.47;;;24.20;49.90;;;;;;5053945;28;20427;-90
2021/08/11 11:17:30;;;;;;;4.60;3.70;;;24.30;49.80;;;;;;5053509;28;20447;-90
2021/08/11 11:20:08;;;;;;;4.03;3.13;;;24.50;49.90;;;;;;5053922;28;20465;-90
2021/08/11 11:22:55;;;;;;;5.30;3.67;;;24.70;49.60;;;;;;5053704;28;20784;-90
2021/08/11 11:25:58;;;;;;;4.60;3.13;;;24.60;48.60;;;;;;5054787;28;20495;-90
2021/08/11 11:29:02;;;;;;;5.90;3.53;;;24.30;48.90;;;;;;5054490;28;20456;-90
2021/08/11 11:31:47;;;;;;;7.20;3.13;;;23.90;49.60;;;;;;5054151;28;20534;-90
2021/08/11 11:34:25;;;;;;;10.97;4.23;;;23.70;49.80;;;;;;5066922;28;20423;-89
2021/08/11 11:36:59;;;;;;;5.77;3.80;;;23.80;50.70;;;;;;5077233;28;20545;-91
2021/08/11 11:39:33;;;;;;;4.90;3.30;;;23.70;50.90;;;;;;5076928;28;20502;-90
2021/08/11 11:42:25;;;;;;;5.40;3.90;;;23.60;51.40;;;;;;5075371;28;20498;-90
2021/08/11 11:45:01;;;;;;;7.00;4.00;;;23.50;52.00;;;;;;5054225;28;20490;-90
2021/08/11 11:50:25;;;;;;;5.23;3.10;;;23.60;50.00;;;;;;5054339;28;20917;-90
2021/08/11 11:52:51;;;;;;;4.30;3.90;;;24.00;50.00;;;;;;5052885;28;20467;-90
2021/08/11 11:55:33;;;;;;;4.87;4.07;;;24.10;50.10;;;;;;5053490;28;20449;-90
2021/08/11 11:58:01;;;;;;;4.17;3.70;;;24.20;49.50;;;;;;5052986;28;20462;-90
2021/08/11 12:00:28;;;;;;;8.17;3.43;;;24.00;49.40;;;;;;5052829;28;20833;-90
2021/08/11 12:02:55;;;;;;;6.43;4.27;;;23.90;49.80;;;;;;5052376;28;20950;-90
2021/08/11 12:05:22;;;;;;;7.90;3.80;;;23.90;50.70;;;;;;5053331;28;20419;-90
2021/08/11 12:07:48;;;;;;;3.50;3.20;;;24.10;50.30;;;;;;5066512;28;20435;-90
2021/08/11 12:10:32;;;;;;;3.77;3.40;;;24.10;49.50;;;;;;5054540;28;20905;-90
2021/08/11 12:13:00;;;;;;;5.70;3.90;;;24.20;48.50;;;;;;5053779;28;20443;-90
2021/08/11 12:15:37;;;;;;;5.60;4.20;;;24.10;48.40;;;;;;5061474;28;20493;-90
2021/08/11 12:18:20;;;;;;;4.80;4.00;;;24.00;48.60;;;;;;5064332;28;20479;-90
2021/08/11 12:20:48;;;;;;;7.33;4.27;;;24.00;49.00;;;;;;5064011;28;20459;-90
2021/08/11 12:23:26;;;;;;;5.13;3.60;;;23.90;49.00;;;;;;5061388;28;20451;-90
2021/08/11 12:25:54;;;;;;;4.50;4.10;;;24.00;48.60;;;;;;5054003;28;20445;-90
2021/08/11 12:28:22;;;;;;;5.57;4.20;;;24.10;48.50;;;;;;5055988;28;20412;-90
2021/08/11 12:30:59;;;;;;;4.50;4.10;;;24.20;48.40;;;;;;5056524;28;20419;-90
2021/08/11 12:33:27;;;;;;;3.87;3.27;;;24.40;47.30;;;;;;5074145;28;20427;-89
2021/08/11 12:35:54;;;;;;;5.20;4.10;;;24.20;47.80;;;;;;5076928;28;20446;-90
2021/08/11 12:38:39;;;;;;;6.07;4.43;;;24.20;48.70;;;;;;5077151;28;20414;-91
2021/08/11 12:41:20;;;;;;;6.83;4.27;;;23.90;48.00;;;;;;5076559;28;20475;-89
2021/08/11 12:43:48;;;;;;;4.60;3.70;;;23.80;48.40;;;;;;5076491;28;20451;-89
2021/08/11 12:46:14;;;;;;;3.80;3.43;;;23.70;48.80;;;;;;5076641;28;20414;-90
2021/08/11 12:48:40;;;;;;;3.50;3.20;;;23.90;49.00;;;;;;5076527;28;20415;-90
2021/08/11 12:51:24;;;;;;;9.30;4.00;;;23.80;49.90;;;;;;5075998;28;20430;-88
2021/08/11 12:54:07;;;;;;;5.83;4.10;;;24.00;50.40;;;;;;5075713;28;20518;-89